Time;durP1;ratioP1;P1;durP2;ratioP2;P2;SDS_P1;SDS_P2;PMS_P1;PMS_P2;Temp;Humidity;BMP_temperature;BMP_pressure;BME280_temperature;BME280_humidity;BME280_pressure;Samples;Min_cycle;Max_cycle;Signal;HPM_P1;HPM_P2
2021/04/19 00:00:57;;;;;;;9.68;5.28;;;14.30;53.60;;;;;;4964983;28;20038;-66
2021/04/19 00:03:23;;;;;;;13.95;5.68;;;14.30;53.60;;;;;;4953039;28;20066;-66
2021/04/19 00:05:49;;;;;;;10.77;5.82;;;14.30;53.80;;;;;;4959726;28;20515;-65
2021/04/19 00:08:17;;;;;;;14.68;5.75;;;14.30;53.90;;;;;;4965229;28;20042;-67
2021/04/19 00:10:43;;;;;;;11.75;5.85;;;14.40;54.00;;;;;;4962694;28;20034;-65
2021/04/19 00:13:10;;;;;;;7.32;5.63;;;14.40;54.10;;;;;;4959391;28;20062;-65
2021/04/19 00:15:36;;;;;;;11.98;5.93;;;14.40;54.20;;;;;;4958796;28;20386;-66
2021/04/19 00:18:07;;;;;;;10.88;5.75;;;14.40;54.10;;;;;;4962709;28;20069;-65
2021/04/19 00:20:33;;;;;;;11.95;6.03;;;14.40;54.10;;;;;;4958760;28;23115;-65
2021/04/19 00:23:04;;;;;;;9.98;5.63;;;14.30;54.00;;;;;;4964940;28;20485;-66
2021/04/19 00:25:34;;;;;;;11.38;6.28;;;14.30;54.00;;;;;;4967508;28;20042;-65
2021/04/19 00:28:02;;;;;;;13.23;6.57;;;14.20;54.10;;;;;;4968223;28;20591;-65
2021/04/19 00:30:28;;;;;;;11.02;6.07;;;14.20;54.10;;;;;;4979411;28;20459;-65
2021/04/19 00:32:53;;;;;;;13.65;5.90;;;14.10;54.10;;;;;;4969613;28;20034;-65
2021/04/19 00:35:22;;;;;;;17.02;6.85;;;14.00;54.10;;;;;;4971514;28;20053;-65
2021/04/19 00:37:48;;;;;;;16.40;6.35;;;13.90;54.20;;;;;;4962992;28;20042;-64
2021/04/19 00:40:17;;;;;;;18.83;6.65;;;13.90;54.40;;;;;;4974523;28;20035;-65
2021/04/19 00:42:45;;;;;;;12.13;6.60;;;13.80;54.50;;;;;;4961819;28;20080;-65
2021/04/19 00:45:11;;;;;;;15.80;6.45;;;13.70;54.60;;;;;;4968026;28;20054;-65
2021/04/19 00:47:37;;;;;;;12.45;6.18;;;13.60;54.70;;;;;;4968500;28;20066;-66
2021/04/19 00:50:10;;;;;;;14.13;6.78;;;13.50;54.80;;;;;;4965333;28;20042;-65
2021/04/19 00:52:36;;;;;;;13.98;6.82;;;13.50;54.90;;;;;;4964464;28;20042;-65
2021/04/19 00:55:05;;;;;;;14.13;6.40;;;13.40;55.00;;;;;;4964963;28;20057;-65
2021/04/19 00:57:33;;;;;;;13.73;6.22;;;13.30;55.10;;;;;;4965939;28;20711;-65
2021/04/19 00:59:58;;;;;;;14.30;6.45;;;13.20;55.20;;;;;;4957944;28;22168;-66
2021/04/19 01:02:26;;;;;;;13.57;6.88;;;13.20;55.30;;;;;;4980047;28;20532;-65
2021/04/19 01:04:54;;;;;;;11.98;6.95;;;13.10;55.40;;;;;;4958961;28;20500;-66
2021/04/19 01:07:23;;;;;;;11.88;6.57;;;13.00;55.40;;;;;;4970064;28;20046;-65
2021/04/19 01:09:49;;;;;;;12.40;6.43;;;13.00;55.50;;;;;;4969589;28;20117;-65
2021/04/19 01:12:16;;;;;;;15.45;7.55;;;12.90;55.50;;;;;;4965395;28;20053;-65
2021/04/19 01:14:42;;;;;;;24.90;7.50;;;12.90;55.60;;;;;;4965376;28;20041;-65
2021/04/19 01:17:08;;;;;;;10.65;6.63;;;12.90;55.80;;;;;;4975421;28;20035;-65
2021/04/19 01:19:34;;;;;;;18.60;7.13;;;12.80;55.90;;;;;;4968650;28;20035;-65
2021/04/19 01:22:02;;;;;;;16.52;6.82;;;12.80;56.00;;;;;;4961588;28;20058;-65
2021/04/19 01:24:28;;;;;;;20.73;7.18;;;12.80;56.00;;;;;;4954995;28;20156;-65
2021/04/19 01:26:54;;;;;;;15.52;7.25;;;12.70;56.00;;;;;;4950197;28;20066;-65
2021/04/19 01:29:19;;;;;;;17.23;7.32;;;12.70;56.20;;;;;;4951136;28;20048;-65
2021/04/19 01:31:45;;;;;;;18.63;7.32;;;12.70;56.30;;;;;;4961444;28;20040;-65
2021/04/19 01:34:10;;;;;;;20.30;8.30;;;12.70;56.40;;;;;;4956063;28;20322;-65
2021/04/19 01:36:36;;;;;;;13.23;7.05;;;12.60;56.40;;;;;;4956295;28;20148;-66
2021/04/19 01:39:03;;;;;;;18.67;7.38;;;12.60;56.40;;;;;;4960817;28;20397;-65
2021/04/19 01:41:29;;;;;;;18.38;7.93;;;12.60;56.50;;;;;;4965844;28;20045;-65
2021/04/19 01:43:55;;;;;;;19.63;7.72;;;12.60;56.60;;;;;;5007645;22;20104;-67
2021/04/19 01:46:21;;;;;;;11.07;7.35;;;12.50;56.50;;;;;;4988098;28;20052;-67
2021/04/19 01:48:49;;;;;;;12.75;7.43;;;12.50;56.50;;;;;;4995348;28;20064;-66
2021/04/19 01:51:17;;;;;;;19.15;7.97;;;12.50;56.50;;;;;;5003865;28;20044;-66
2021/04/19 01:53:47;;;;;;;16.38;7.50;;;12.50;56.50;;;;;;4998271;28;20064;-67
2021/04/19 01:56:13;;;;;;;14.13;7.50;;;12.50;56.50;;;;;;4988718;28;20037;-67
2021/04/19 01:58:39;;;;;;;14.45;7.68;;;12.50;56.50;;;;;;4993560;28;20044;-66
2021/04/19 02:01:09;;;;;;;19.88;7.57;;;12.50;56.60;;;;;;4997625;28;20463;-66
2021/04/19 02:04:29;;;;;;;16.45;7.20;;;12.50;56.60;;;;;;4989284;28;20317;-66
2021/04/19 02:07:22;;;;;;;15.02;6.57;;;12.50;56.60;;;;;;4989605;28;20116;-66
2021/04/19 02:09:59;;;;;;;14.00;7.30;;;12.50;56.50;;;;;;4996877;28;20034;-66
2021/04/19 02:12:45;;;;;;;18.50;8.15;;;12.50;56.50;;;;;;4988976;28;20029;-66
2021/04/19 02:15:17;;;;;;;16.20;6.72;;;12.50;56.40;;;;;;4994892;28;20045;-66
2021/04/19 02:18:18;;;;;;;14.82;7.63;;;12.50;56.50;;;;;;4999979;28;20037;-67
2021/04/19 02:20:57;;;;;;;16.70;7.40;;;12.50;56.50;;;;;;5004894;28;20142;-66
2021/04/19 02:23:28;;;;;;;17.10;8.05;;;12.50;56.60;;;;;;4998292;28;20080;-65
2021/04/19 02:26:00;;;;;;;13.75;7.32;;;12.50;56.60;;;;;;4997720;28;20037;-65
2021/04/19 02:28:34;;;;;;;13.88;7.70;;;12.50;56.60;;;;;;5004621;28;20037;-66
2021/04/19 02:31:07;;;;;;;19.38;7.95;;;12.50;56.60;;;;;;5004373;28;20467;-66
2021/04/19 02:33:38;;;;;;;14.98;7.88;;;12.40;56.60;;;;;;4984600;28;20049;-67
2021/04/19 02:36:08;;;;;;;17.85;7.95;;;12.40;56.60;;;;;;5000850;28;20361;-66
2021/04/19 02:38:37;;;;;;;12.60;7.47;;;12.40;56.70;;;;;;5004384;28;20037;-67
2021/04/19 02:41:05;;;;;;;14.20;7.18;;;12.30;56.70;;;;;;5008833;28;20885;-66
2021/04/19 02:43:36;;;;;;;16.45;8.02;;;12.30;56.70;;;;;;4992557;28;20045;-66
2021/04/19 02:46:08;;;;;;;17.65;8.10;;;12.30;56.70;;;;;;4994205;28;20037;-66
2021/04/19 02:48:34;;;;;;;15.02;8.27;;;12.30;56.80;;;;;;4985779;28;20045;-66
2021/04/19 02:51:06;;;;;;;15.07;8.60;;;12.20;56.80;;;;;;5000183;28;20121;-66
2021/04/19 02:53:32;;;;;;;18.05;8.38;;;12.20;56.80;;;;;;4996546;28;20151;-66
2021/04/19 02:56:03;;;;;;;18.08;8.20;;;12.20;56.80;;;;;;4992258;28;20051;-65
2021/04/19 02:58:47;;;;;;;14.55;8.32;;;12.20;56.80;;;;;;4999541;28;20049;-66
2021/04/19 03:01:27;;;;;;;14.60;7.72;;;12.10;56.70;;;;;;4986700;28;20124;-66
2021/04/19 03:03:56;;;;;;;14.43;8.75;;;12.10;56.50;;;;;;4984143;28;20064;-67
2021/04/19 03:06:24;;;;;;;12.65;8.65;;;12.00;56.70;;;;;;4995216;28;20635;-65
2021/04/19 03:08:54;;;;;;;15.15;8.00;;;12.00;56.90;;;;;;4988507;28;20554;-65
2021/04/19 03:11:43;;;;;;;18.58;8.82;;;12.00;57.20;;;;;;4992364;28;20038;-66
2021/04/19 03:14:12;;;;;;;17.80;9.18;;;12.00;57.20;;;;;;4990754;28;20411;-65
2021/04/19 03:16:45;;;;;;;23.05;11.07;;;12.00;57.30;;;;;;4995033;28;20500;-66
2021/04/19 03:19:16;;;;;;;24.15;11.63;;;12.00;57.50;;;;;;4984765;28;20056;-66
2021/04/19 03:21:48;;;;;;;23.70;12.25;;;12.00;57.80;;;;;;4996450;28;20534;-66
2021/04/19 03:24:17;;;;;;;23.17;12.05;;;12.00;57.70;;;;;;5009357;28;20514;-66
2021/04/19 03:26:43;;;;;;;27.40;12.38;;;12.00;57.70;;;;;;4998074;28;20044;-67
2021/04/19 03:29:10;;;;;;;26.98;13.20;;;12.00;57.60;;;;;;4996475;28;20045;-66
2021/04/19 03:31:40;;;;;;;30.08;15.07;;;12.00;57.50;;;;;;4997910;28;20578;-66
2021/04/19 03:34:11;;;;;;;33.17;15.50;;;11.90;57.60;;;;;;4991618;28;20049;-66
2021/04/19 03:36:37;;;;;;;32.15;16.15;;;11.90;57.70;;;;;;5000313;28;20052;-65
2021/04/19 03:39:06;;;;;;;35.60;17.13;;;11.90;57.80;;;;;;5000840;28;20037;-66
2021/04/19 03:41:39;;;;;;;33.53;16.73;;;11.80;58.00;;;;;;5010490;28;20450;-66
2021/04/19 03:44:08;;;;;;;42.58;18.20;;;11.90;58.40;;;;;;4999656;28;20518;-65
2021/04/19 03:46:41;;;;;;;40.15;20.02;;;11.90;58.70;;;;;;5006844;28;20503;-66
2021/04/19 03:49:11;;;;;;;41.85;19.35;;;11.90;58.80;;;;;;4996417;28;20419;-66
2021/04/19 03:51:38;;;;;;;45.30;22.50;;;12.00;58.90;;;;;;4996414;28;20045;-65
2021/04/19 03:54:07;;;;;;;56.72;25.60;;;12.00;58.90;;;;;;5007751;28;20045;-65
2021/04/19 03:56:37;;;;;;;57.80;27.48;;;12.00;58.90;;;;;;5001308;28;20049;-66
2021/04/19 03:59:13;;;;;;;60.30;28.25;;;12.10;58.90;;;;;;5001244;28;20145;-66
2021/04/19 04:01:40;;;;;;;65.38;33.22;;;12.10;59.00;;;;;;5002469;28;20045;-65
2021/04/19 04:04:07;;;;;;;68.68;31.67;;;12.00;59.00;;;;;;4989453;28;20630;-65
2021/04/19 04:06:40;;;;;;;86.30;36.63;;;12.10;59.20;;;;;;5001865;28;20119;-65
2021/04/19 04:09:07;;;;;;;93.53;37.83;;;12.10;59.20;;;;;;4995001;28;20056;-67
2021/04/19 04:11:33;;;;;;;110.97;41.05;;;12.10;59.20;;;;;;4993238;28;20042;-66
2021/04/19 04:13:59;;;;;;;96.43;38.70;;;12.10;59.60;;;;;;4985309;28;20045;-67
2021/04/19 04:16:26;;;;;;;107.28;41.15;;;12.10;59.30;;;;;;5018484;28;20052;-66
2021/04/19 04:18:52;;;;;;;97.25;39.53;;;12.10;59.30;;;;;;4998319;28;20143;-66
2021/04/19 04:21:18;;;;;;;114.00;41.63;;;12.10;59.40;;;;;;4998774;28;20630;-66
2021/04/19 04:23:49;;;;;;;107.72;42.80;;;12.10;59.50;;;;;;4991187;28;20033;-65
2021/04/19 04:26:15;;;;;;;112.32;43.30;;;12.10;59.70;;;;;;4995089;28;20038;-65
2021/04/19 04:28:44;;;;;;;106.15;41.50;;;12.10;59.80;;;;;;4992001;28;20103;-66
2021/04/19 04:31:13;;;;;;;120.78;42.70;;;12.20;59.80;;;;;;5005085;28;20046;-65
2021/04/19 04:33:38;;;;;;;103.85;40.47;;;12.20;59.80;;;;;;5002690;28;20584;-65
2021/04/19 04:36:08;;;;;;;98.32;38.80;;;12.20;59.70;;;;;;5017680;28;20042;-66
2021/04/19 04:38:33;;;;;;;93.07;36.90;;;12.20;59.80;;;;;;4997580;28;20052;-65
2021/04/19 04:41:01;;;;;;;83.93;36.83;;;12.20;59.80;;;;;;4993300;28;20034;-65
2021/04/19 04:43:31;;;;;;;106.40;40.75;;;12.20;59.90;;;;;;4991697;28;20801;-67
2021/04/19 04:46:14;;;;;;;105.53;39.65;;;12.20;60.10;;;;;;4997315;28;20139;-67
2021/04/19 04:48:46;;;;;;;114.95;40.88;;;12.20;60.20;;;;;;4995205;28;20034;-65
2021/04/19 04:51:19;;;;;;;118.10;41.28;;;12.20;60.10;;;;;;4988864;28;20041;-67
2021/04/19 04:53:55;;;;;;;124.20;42.30;;;12.20;60.20;;;;;;4998037;28;20052;-66
2021/04/19 04:56:24;;;;;;;141.25;42.60;;;12.20;60.30;;;;;;4992280;28;20111;-65
2021/04/19 04:58:59;;;;;;;136.30;41.90;;;12.20;60.20;;;;;;4993855;28;20119;-67
2021/04/19 05:01:27;;;;;;;138.80;42.60;;;12.20;60.40;;;;;;4990599;28;20049;-66
2021/04/19 05:03:53;;;;;;;148.27;44.40;;;12.20;60.50;;;;;;4992153;28;20034;-67
2021/04/19 05:06:19;;;;;;;139.85;44.25;;;12.20;60.70;;;;;;4996075;28;20065;-66
2021/04/19 05:08:46;;;;;;;160.20;46.45;;;12.20;60.80;;;;;;4989330;28;20237;-66
2021/04/19 05:11:14;;;;;;;158.40;46.10;;;12.30;60.90;;;;;;4996252;28;20132;-66
2021/04/19 05:13:40;;;;;;;177.02;48.97;;;12.30;60.80;;;;;;4990205;28;20088;-66
2021/04/19 05:16:08;;;;;;;172.90;49.22;;;12.30;60.90;;;;;;5001477;28;20049;-65
2021/04/19 05:18:34;;;;;;;172.95;46.03;;;12.30;60.90;;;;;;5004061;28;20132;-66
2021/04/19 05:21:00;;;;;;;175.52;48.63;;;12.30;60.90;;;;;;4999776;28;20311;-66
2021/04/19 05:23:27;;;;;;;185.80;49.80;;;12.30;60.90;;;;;;4995098;28;20045;-65
2021/04/19 05:25:53;;;;;;;172.75;50.13;;;12.30;61.00;;;;;;4998429;28;20073;-65
2021/04/19 05:28:19;;;;;;;172.20;49.03;;;12.30;61.10;;;;;;5004623;28;20495;-66
2021/04/19 05:30:46;;;;;;;162.82;46.80;;;12.30;61.30;;;;;;5007501;28;20117;-66
2021/04/19 05:33:17;;;;;;;155.32;47.15;;;12.40;61.20;;;;;;5002122;28;21153;-66
2021/04/19 05:35:43;;;;;;;162.18;47.88;;;12.40;61.20;;;;;;4994223;28;20050;-67
2021/04/19 05:38:11;;;;;;;146.38;47.08;;;12.40;61.30;;;;;;5000044;28;20049;-66
2021/04/19 05:40:37;;;;;;;148.73;47.60;;;12.40;61.40;;;;;;4999115;28;20115;-66
2021/04/19 05:43:10;;;;;;;143.15;45.40;;;12.40;61.50;;;;;;4994522;28;20049;-66
2021/04/19 05:45:39;;;;;;;135.27;44.13;;;12.50;61.50;;;;;;4981248;28;20052;-66
2021/04/19 05:48:08;;;;;;;121.63;43.70;;;12.50;61.40;;;;;;4989608;28;20053;-65
2021/04/19 05:50:34;;;;;;;120.03;42.17;;;12.50;61.50;;;;;;4991742;28;20466;-66
2021/04/19 05:53:00;;;;;;;95.28;37.45;;;12.60;61.50;;;;;;4986779;28;20070;-67
2021/04/19 05:55:31;;;;;;;109.47;42.15;;;12.60;61.40;;;;;;4991204;28;20529;-66
2021/04/19 05:58:16;;;;;;;129.60;44.85;;;12.50;61.40;;;;;;4986968;28;20042;-66
2021/04/19 06:00:48;;;;;;;111.45;42.30;;;12.60;61.60;;;;;;4981615;28;20441;-67
2021/04/19 06:03:34;;;;;;;104.47;40.63;;;12.60;61.80;;;;;;4971314;28;20120;-66
2021/04/19 06:06:15;;;;;;;85.97;36.88;;;12.60;61.90;;;;;;4982037;28;20046;-67
2021/04/19 06:09:02;;;;;;;75.45;34.15;;;12.70;61.90;;;;;;4992162;28;20046;-66
2021/04/19 06:11:34;;;;;;;79.93;35.15;;;12.70;61.70;;;;;;4989676;28;20156;-66
2021/04/19 06:14:02;;;;;;;77.03;33.00;;;12.70;61.70;;;;;;4995980;28;20033;-67
2021/04/19 06:16:30;;;;;;;82.50;33.67;;;12.70;61.80;;;;;;4991352;28;20365;-66
2021/04/19 06:19:00;;;;;;;81.72;33.88;;;12.70;62.00;;;;;;4989620;28;20158;-66
2021/04/19 06:21:25;;;;;;;70.55;31.02;;;12.80;62.00;;;;;;4998381;28;20045;-65
2021/04/19 06:23:53;;;;;;;66.97;30.08;;;12.80;61.80;;;;;;4998157;28;20044;-65
2021/04/19 06:26:19;;;;;;;72.90;29.80;;;12.80;61.90;;;;;;4995057;28;20069;-66
2021/04/19 06:28:48;;;;;;;64.28;29.83;;;12.80;61.80;;;;;;4997787;28;20428;-66
2021/04/19 06:31:19;;;;;;;66.47;30.95;;;12.90;62.00;;;;;;5003817;28;20871;-65
2021/04/19 06:34:01;;;;;;;72.75;31.65;;;12.90;62.00;;;;;;5004811;28;20502;-66
2021/04/19 06:36:31;;;;;;;76.43;30.33;;;12.90;62.00;;;;;;4993717;28;20049;-67
2021/04/19 06:38:57;;;;;;;71.88;31.92;;;13.00;61.90;;;;;;4995033;28;20052;-67
2021/04/19 06:41:23;;;;;;;63.33;31.92;;;13.00;61.90;;;;;;5004940;28;20072;-67
2021/04/19 06:43:55;;;;;;;75.65;32.90;;;13.00;62.00;;;;;;5009651;28;20049;-66
2021/04/19 06:46:23;;;;;;;65.53;30.15;;;13.10;61.90;;;;;;4998893;28;20483;-66
2021/04/19 06:48:51;;;;;;;68.43;32.28;;;13.20;61.60;;;;;;4992879;28;20057;-68
2021/04/19 06:51:19;;;;;;;75.20;34.78;;;13.20;61.70;;;;;;4978353;28;20045;-68
2021/04/19 06:53:47;;;;;;;81.88;34.38;;;13.20;61.60;;;;;;5002447;28;20416;-66
2021/04/19 06:56:13;;;;;;;73.43;35.53;;;13.20;61.50;;;;;;4985531;28;20617;-67
2021/04/19 06:58:41;;;;;;;77.15;35.78;;;13.20;61.50;;;;;;4993948;28;20073;-67
2021/04/19 07:01:07;;;;;;;68.63;33.08;;;13.20;61.50;;;;;;4988903;28;20068;-66
2021/04/19 07:03:34;;;;;;;82.35;34.30;;;13.20;61.30;;;;;;4983927;28;20042;-66
2021/04/19 07:06:01;;;;;;;78.13;35.65;;;13.20;61.40;;;;;;4979362;28;20033;-67
2021/04/19 07:08:40;;;;;;;80.18;36.58;;;13.20;61.40;;;;;;4996316;28;20598;-67
2021/04/19 07:11:07;;;;;;;70.93;32.53;;;13.20;61.60;;;;;;5007311;28;20053;-67
2021/04/19 07:13:39;;;;;;;76.88;34.13;;;13.20;61.60;;;;;;5001152;28;20068;-66
2021/04/19 07:16:07;;;;;;;70.18;32.13;;;13.20;61.40;;;;;;5010631;28;20044;-66
2021/04/19 07:18:34;;;;;;;69.70;33.70;;;13.30;61.50;;;;;;4996985;28;20042;-67
2021/04/19 07:21:00;;;;;;;72.20;32.72;;;13.30;61.50;;;;;;4993906;28;20037;-66
2021/04/19 07:23:31;;;;;;;73.60;35.38;;;13.30;61.50;;;;;;4999931;28;20053;-66
2021/04/19 07:25:57;;;;;;;63.67;31.30;;;13.30;61.40;;;;;;4987953;28;20106;-67
2021/04/19 07:28:27;;;;;;;68.15;32.70;;;13.40;61.40;;;;;;4991103;28;22785;-67
2021/04/19 07:31:06;;;;;;;60.08;31.77;;;13.40;61.20;;;;;;4978606;28;23126;-65
2021/04/19 07:33:34;;;;;;;62.72;31.48;;;13.50;61.60;;;;;;4991377;28;20494;-65
2021/04/19 07:36:19;;;;;;;61.53;31.23;;;13.60;61.30;;;;;;4997480;28;20041;-67
2021/04/19 07:38:45;;;;;;;49.45;28.10;;;13.60;60.90;;;;;;5005237;28;20422;-65
2021/04/19 07:41:12;;;;;;;50.38;28.00;;;13.70;60.80;;;;;;5003597;28;20143;-66
2021/04/19 07:43:43;;;;;;;46.28;27.08;;;13.80;60.90;;;;;;5021725;22;20049;-67
2021/04/19 07:46:11;;;;;;;49.40;25.08;;;13.90;60.60;;;;;;4997738;28;20563;-67
2021/04/19 07:48:49;;;;;;;46.15;25.23;;;14.00;60.60;;;;;;5018578;28;20098;-66
2021/04/19 07:51:30;;;;;;;40.22;24.27;;;14.00;60.20;;;;;;5018346;28;20352;-66
2021/04/19 07:54:11;;;;;;;43.83;25.33;;;14.10;59.90;;;;;;5003639;28;20042;-66
2021/04/19 07:56:39;;;;;;;47.03;24.95;;;14.10;59.90;;;;;;4987561;28;20038;-67
2021/04/19 07:59:20;;;;;;;49.80;26.30;;;14.20;59.60;;;;;;4996999;28;20128;-66
2021/04/19 08:02:02;;;;;;;43.42;27.02;;;14.20;59.40;;;;;;4980972;28;20549;-67
2021/04/19 08:04:28;;;;;;;48.15;26.33;;;14.20;59.30;;;;;;5000811;28;20120;-66
2021/04/19 08:06:54;;;;;;;54.13;28.52;;;14.30;59.20;;;;;;4992393;28;20960;-66
2021/04/19 08:09:23;;;;;;;53.58;29.52;;;14.30;59.10;;;;;;4998943;28;20037;-66
2021/04/19 08:11:51;;;;;;;50.58;30.52;;;14.40;59.20;;;;;;4988889;28;20046;-66
2021/04/19 08:14:21;;;;;;;44.20;29.08;;;14.60;59.20;;;;;;5002493;28;20069;-66
2021/04/19 08:17:10;;;;;;;51.58;29.17;;;14.70;59.00;;;;;;5006542;28;20529;-66
2021/04/19 08:19:39;;;;;;;42.10;25.85;;;14.90;58.60;;;;;;4996529;28;20705;-66
2021/04/19 08:22:28;;;;;;;37.50;22.50;;;15.00;58.20;;;;;;4995210;28;20049;-67
2021/04/19 08:25:19;;;;;;;35.75;21.05;;;15.10;57.80;;;;;;5018106;28;20123;-66
2021/04/19 08:27:48;;;;;;;36.10;20.58;;;15.10;57.60;;;;;;5006780;28;20094;-66
2021/04/19 08:30:15;;;;;;;51.17;28.23;;;15.10;57.50;;;;;;4993499;28;20048;-66
2021/04/19 08:32:44;;;;;;;56.88;29.90;;;15.10;57.40;;;;;;4992914;28;20045;-66
2021/04/19 08:35:10;;;;;;;50.58;29.85;;;15.30;57.30;;;;;;4985790;28;20073;-66
2021/04/19 08:37:39;;;;;;;52.35;29.80;;;15.40;57.00;;;;;;5003876;28;20034;-66
2021/04/19 08:40:06;;;;;;;47.40;27.92;;;15.40;56.70;;;;;;4998468;28;20041;-66
2021/04/19 08:42:35;;;;;;;40.22;23.42;;;15.60;56.60;;;;;;5007107;28;20064;-66
2021/04/19 08:45:01;;;;;;;34.45;21.15;;;15.70;56.30;;;;;;4997438;28;20754;-67
2021/04/19 08:47:32;;;;;;;32.28;20.27;;;15.80;56.20;;;;;;5003721;28;20495;-65
2021/04/19 08:50:00;;;;;;;36.08;19.83;;;15.90;55.80;;;;;;4997032;28;20115;-66
2021/04/19 08:52:27;;;;;;;27.77;18.25;;;16.00;55.90;;;;;;4979351;28;20843;-67
2021/04/19 08:54:53;;;;;;;33.13;19.80;;;16.30;55.60;;;;;;4987680;28;20045;-66
2021/04/19 08:57:25;;;;;;;27.88;17.05;;;16.60;55.20;;;;;;4991052;28;21104;-66
2021/04/19 08:59:53;;;;;;;26.95;16.63;;;16.80;54.30;;;;;;4997320;28;20511;-66
2021/04/19 09:02:21;;;;;;;23.23;16.05;;;17.20;55.20;;;;;;4995835;28;20042;-66
2021/04/19 09:05:06;;;;;;;22.02;14.90;;;18.80;55.60;;;;;;5000694;28;20537;-67
2021/04/19 09:07:34;;;;;;;21.70;15.55;;;20.80;51.00;;;;;;4999256;28;20404;-67
2021/04/19 09:09:59;;;;;;;22.05;15.13;;;22.30;47.20;;;;;;5001841;28;20438;-67
2021/04/19 09:12:28;;;;;;;24.17;14.55;;;22.90;43.80;;;;;;4993929;28;20053;-67
2021/04/19 09:15:21;;;;;;;28.13;15.75;;;22.50;42.10;;;;;;4989671;28;20667;-67
2021/04/19 09:18:09;;;;;;;29.63;15.73;;;21.70;42.40;;;;;;4995140;28;20040;-67
2021/04/19 09:20:50;;;;;;;25.70;14.90;;;20.90;43.50;;;;;;4998101;28;20152;-66
2021/04/19 09:23:33;;;;;;;22.48;13.80;;;20.30;44.30;;;;;;4998934;28;20042;-66
2021/04/19 09:26:01;;;;;;;21.42;15.27;;;19.90;45.20;;;;;;4992161;28;21161;-66
2021/04/19 09:28:42;;;;;;;23.35;15.55;;;19.80;45.50;;;;;;5000125;28;20455;-66
2021/04/19 09:31:13;;;;;;;24.77;16.02;;;19.60;45.80;;;;;;4992805;28;20561;-66
2021/04/19 09:33:41;;;;;;;20.58;14.35;;;19.40;46.10;;;;;;4992599;28;20033;-66
2021/04/19 09:36:11;;;;;;;23.90;14.20;;;19.20;46.00;;;;;;4976467;28;20328;-66
2021/04/19 09:38:41;;;;;;;21.95;14.35;;;19.10;46.30;;;;;;5005676;28;20068;-66
2021/04/19 09:41:13;;;;;;;29.00;18.17;;;19.10;47.00;;;;;;4995132;28;20030;-65
2021/04/19 09:43:47;;;;;;;35.00;24.27;;;;;;;;;;4991962;28;21171;-65
2021/04/19 09:46:19;;;;;;;33.38;22.92;;;;;;;;;;4991097;28;20310;-65
2021/04/19 09:48:55;;;;;;;35.55;24.25;;;;;;;;;;4992687;28;20370;-65
2021/04/19 09:51:43;;;;;;;34.70;23.23;;;19.30;46.80;;;;;;4993664;28;20614;-65
2021/04/19 09:54:18;;;;;;;36.13;24.13;;;20.90;44.90;;;;;;4994730;28;20041;-65
2021/04/19 09:56:45;;;;;;;36.88;25.52;;;21.50;43.50;;;;;;4992816;28;20037;-65
2021/04/19 09:59:18;;;;;;;39.20;25.30;;;21.80;43.30;;;;;;4996103;28;20069;-65
2021/04/19 10:01:52;;;;;;;34.58;24.15;;;22.60;42.70;;;;;;4986208;28;20171;-65
2021/04/19 10:04:18;;;;;;;32.75;24.08;;;23.60;40.10;;;;;;4992281;28;21793;-66
2021/04/19 10:06:52;;;;;;;38.20;25.92;;;23.90;38.30;;;;;;4979268;28;20124;-65
2021/04/19 10:09:24;;;;;;;36.70;25.92;;;23.50;38.30;;;;;;4986912;28;20061;-64
2021/04/19 10:11:55;;;;;;;33.60;24.25;;;23.20;38.50;;;;;;4981407;28;20124;-65
2021/04/19 10:14:21;;;;;;;33.22;22.77;;;22.70;38.80;;;;;;4993563;28;20052;-65
2021/04/19 10:16:51;;;;;;;24.75;17.90;;;22.70;40.10;;;;;;4984960;28;20116;-64
2021/04/19 10:19:27;;;;;;;32.03;21.98;;;23.40;40.00;;;;;;4990205;28;20451;-65
2021/04/19 10:22:04;;;;;;;23.77;17.75;;;;;;;;;;4980602;28;20052;-65
2021/04/19 10:24:32;;;;;;;25.30;18.23;;;;;;;;;;4990988;28;20068;-65
2021/04/19 10:27:00;;;;;;;24.08;18.17;;;24.10;37.60;;;;;;4992083;28;20033;-65
2021/04/19 10:29:28;;;;;;;23.85;17.95;;;23.60;38.90;;;;;;4985735;28;20100;-65
2021/04/19 10:31:59;;;;;;;24.65;19.25;;;24.00;37.60;;;;;;4986614;28;20073;-65
2021/04/19 10:34:27;;;;;;;24.52;18.00;;;24.40;36.50;;;;;;4986703;28;20042;-65
2021/04/19 10:36:55;;;;;;;22.73;16.85;;;24.80;36.30;;;;;;4988261;28;20075;-65
2021/04/19 10:39:25;;;;;;;21.58;15.70;;;25.00;35.50;;;;;;4993459;28;20056;-65
2021/04/19 10:41:56;;;;;;;21.65;14.95;;;24.80;35.70;;;;;;4972328;28;20074;-65
2021/04/19 10:44:54;;;;;;;20.63;15.13;;;24.60;35.90;;;;;;4992625;28;20095;-65
2021/04/19 10:47:28;;;;;;;20.40;14.80;;;24.60;35.70;;;;;;4985732;28;20048;-65
2021/04/19 10:49:59;;;;;;;20.38;13.50;;;24.50;35.40;;;;;;4990809;28;20449;-65
2021/04/19 10:52:29;;;;;;;17.77;12.82;;;24.40;35.90;;;;;;4990090;28;23111;-65
2021/04/19 10:54:55;;;;;;;18.70;13.02;;;24.60;35.70;;;;;;4972361;28;20620;-66
2021/04/19 10:57:29;;;;;;;17.08;12.75;;;24.90;34.90;;;;;;4986425;28;20037;-65
2021/04/19 10:59:58;;;;;;;14.70;11.13;;;25.20;34.40;;;;;;4985523;28;20643;-65
2021/04/19 11:02:28;;;;;;;16.52;12.25;;;25.50;33.80;;;;;;4982979;28;20038;-64
2021/04/19 11:04:55;;;;;;;17.25;11.68;;;25.90;33.80;;;;;;4976311;28;20190;-65
2021/04/19 11:07:31;;;;;;;14.35;11.13;;;26.50;32.50;;;;;;4986379;28;20045;-65
2021/04/19 11:10:18;;;;;;;16.52;11.75;;;26.80;32.10;;;;;;4990830;28;20530;-65
2021/04/19 11:13:05;;;;;;;16.02;11.38;;;27.00;31.80;;;;;;4987359;28;20041;-65
2021/04/19 11:15:41;;;;;;;16.05;11.93;;;27.40;31.70;;;;;;4989325;28;20342;-65
2021/04/19 11:18:16;;;;;;;16.02;12.50;;;27.70;30.70;;;;;;5009034;28;20041;-65
2021/04/19 11:20:52;;;;;;;17.23;12.55;;;27.90;30.80;;;;;;5007278;28;20033;-65
2021/04/19 11:23:30;;;;;;;17.95;13.13;;;28.00;30.60;;;;;;5004897;28;20776;-65
2021/04/19 11:25:58;;;;;;;19.20;13.13;;;28.00;30.20;;;;;;5003433;28;20487;-64
2021/04/19 11:28:34;;;;;;;17.10;13.15;;;27.80;30.00;;;;;;5003383;28;20083;-65
2021/04/19 11:31:21;;;;;;;18.98;14.25;;;27.50;30.80;;;;;;4982819;28;20491;-65
2021/04/19 11:33:50;;;;;;;19.33;13.77;;;27.10;31.60;;;;;;4994361;28;20042;-64
2021/04/19 11:36:19;;;;;;;18.83;14.60;;;;;;;;;;5007588;28;20527;-64
2021/04/19 11:38:44;;;;;;;20.67;14.15;;;26.80;31.50;;;;;;5002163;28;20049;-64
2021/04/19 11:41:15;;;;;;;18.17;13.85;;;26.20;32.10;;;;;;4984781;28;20041;-65
2021/04/19 11:43:54;;;;;;;21.38;15.60;;;25.90;32.70;;;;;;4986744;28;20076;-64
2021/04/19 11:46:23;;;;;;;17.85;12.73;;;25.60;33.40;;;;;;4991804;28;20549;-64
2021/04/19 11:48:51;;;;;;;21.30;14.02;;;25.40;33.30;;;;;;5002424;28;20037;-64
2021/04/19 11:51:21;;;;;;;19.77;14.60;;;25.30;33.40;;;;;;4999029;28;20083;-64
2021/04/19 11:53:50;;;;;;;19.92;14.73;;;25.10;33.10;;;;;;4983336;28;20099;-64
2021/04/19 11:56:19;;;;;;;18.85;14.20;;;25.00;33.40;;;;;;4990803;28;20119;-64
2021/04/19 11:58:48;;;;;;;23.30;16.27;;;24.90;33.50;;;;;;4999657;28;20389;-64
2021/04/19 12:01:18;;;;;;;24.23;15.85;;;24.80;33.80;;;;;;4982238;28;20570;-65
2021/04/19 12:03:44;;;;;;;21.80;16.83;;;24.80;34.20;;;;;;4988442;28;20052;-64
2021/04/19 12:06:11;;;;;;;23.20;15.75;;;24.70;34.00;;;;;;4985557;28;20041;-65
2021/04/19 12:08:39;;;;;;;21.30;14.82;;;24.60;34.30;;;;;;4984084;28;20037;-65
2021/04/19 12:11:07;;;;;;;23.27;15.02;;;24.50;34.90;;;;;;4978357;28;20591;-64
2021/04/19 12:13:33;;;;;;;19.98;14.80;;;24.50;34.10;;;;;;4986342;28;20111;-64
2021/04/19 12:15:59;;;;;;;22.73;15.25;;;24.40;34.60;;;;;;4991770;28;20045;-65
2021/04/19 12:18:24;;;;;;;25.45;16.15;;;24.30;35.30;;;;;;4989904;28;20120;-64
2021/04/19 12:20:54;;;;;;;18.13;14.10;;;24.30;35.00;;;;;;4988382;28;20034;-65
2021/04/19 12:23:24;;;;;;;24.73;16.17;;;24.30;35.00;;;;;;4978336;28;21073;-64
2021/04/19 12:25:51;;;;;;;20.10;14.45;;;24.40;34.50;;;;;;4986417;28;20183;-65
2021/04/19 12:28:19;;;;;;;18.48;14.02;;;24.30;34.80;;;;;;4982664;28;20154;-64
2021/04/19 12:30:46;;;;;;;20.33;15.35;;;24.30;35.40;;;;;;4991855;28;21419;-64
2021/04/19 12:33:15;;;;;;;20.30;13.55;;;24.30;34.50;;;;;;4990314;28;20136;-65
2021/04/19 12:35:41;;;;;;;19.58;14.50;;;24.20;34.10;;;;;;4974144;28;20056;-65
2021/04/19 12:38:11;;;;;;;20.48;13.43;;;24.20;34.40;;;;;;4988343;28;20042;-65
2021/04/19 12:40:37;;;;;;;22.52;14.57;;;24.20;33.90;;;;;;4990086;28;20076;-70
2021/04/19 12:43:05;;;;;;;19.67;13.95;;;24.20;34.00;;;;;;4995441;28;20219;-65
2021/04/19 12:45:34;;;;;;;20.13;14.30;;;24.10;33.90;;;;;;4992802;28;20037;-64
2021/04/19 12:48:00;;;;;;;22.17;15.25;;;24.20;33.80;;;;;;4986525;28;20819;-65